createdAt,value
2018-09-06T00:02:15.100Z,8.73
2018-09-06T00:04:48.037Z,7.95
2018-09-06T00:07:21.044Z,8.63
2018-09-06T00:09:54.094Z,8.78
2018-09-06T00:12:27.157Z,8.38
2018-09-06T00:15:00.215Z,8.33
2018-09-06T00:17:34.389Z,9.03
2018-09-06T00:20:07.424Z,9.95
2018-09-06T00:22:40.433Z,9.28
2018-09-06T00:25:13.388Z,8.48
2018-09-06T00:27:46.493Z,8.10
2018-09-06T00:30:19.586Z,9.00
2018-09-06T00:32:52.577Z,8.85
2018-09-06T00:35:25.745Z,8.65
2018-09-06T00:37:58.790Z,9.20
2018-09-06T00:40:31.814Z,8.65
2018-09-06T00:43:04.982Z,9.75
2018-09-06T00:45:38.110Z,9.20
2018-09-06T00:48:11.268Z,9.33
2018-09-06T00:50:44.274Z,9.23
2018-09-06T00:53:17.364Z,9.38
2018-09-06T00:55:50.331Z,8.55
2018-09-06T00:58:23.392Z,9.60
2018-09-06T01:00:56.603Z,9.55
2018-09-06T01:03:29.534Z,9.50
2018-09-06T01:06:02.527Z,9.08
2018-09-06T01:08:35.505Z,9.10
2018-09-06T01:11:08.423Z,9.58
2018-09-06T01:13:41.483Z,9.98
2018-09-06T01:16:14.542Z,10.45
2018-09-06T01:18:47.655Z,8.75
2018-09-06T01:21:20.837Z,11.73
2018-09-06T01:23:53.979Z,9.18
2018-09-06T01:26:26.936Z,11.28
2018-09-06T01:29:00.171Z,8.55
2018-09-06T01:31:33.230Z,9.65
2018-09-06T01:34:06.269Z,9.58
2018-09-06T01:36:45.756Z,9.55
2018-09-06T01:39:18.923Z,8.88
2018-09-06T01:41:51.989Z,9.38
2018-09-06T01:44:24.925Z,9.15
2018-09-06T01:46:58.099Z,9.00
2018-09-06T01:49:31.758Z,9.35
2018-09-06T01:52:04.977Z,8.98
2018-09-06T01:54:37.991Z,9.78
2018-09-06T01:57:10.945Z,9.25
2018-09-06T01:59:43.839Z,10.30
2018-09-06T02:02:17.517Z,9.95
2018-09-06T02:04:50.611Z,9.08
2018-09-06T02:07:23.715Z,10.03
2018-09-06T02:09:56.671Z,9.85
2018-09-06T02:12:29.612Z,10.05
2018-09-06T02:15:02.737Z,10.15
2018-09-06T02:17:35.895Z,9.73
2018-09-06T02:20:08.987Z,9.90
2018-09-06T02:22:42.020Z,10.00
2018-09-06T02:25:15.135Z,9.03
2018-09-06T02:27:48.275Z,9.75
2018-09-06T02:30:21.264Z,9.20
2018-09-06T02:32:54.471Z,10.13
2018-09-06T02:35:27.540Z,10.50
2018-09-06T02:38:00.589Z,9.68
2018-09-06T02:40:37.376Z,10.63
2018-09-06T02:43:12.601Z,9.60
2018-09-06T02:45:45.683Z,10.70
2018-09-06T02:48:23.514Z,10.10
2018-09-06T02:51:02.151Z,9.73
2018-09-06T02:53:35.095Z,9.95
2018-09-06T02:56:08.261Z,9.10
2018-09-06T02:58:41.272Z,11.08
2018-09-06T03:01:14.379Z,10.25
2018-09-06T03:03:47.523Z,10.48
2018-09-06T03:06:20.611Z,11.25
2018-09-06T03:08:53.616Z,10.40
2018-09-06T03:11:31.194Z,10.93
2018-09-06T03:14:04.420Z,10.53
2018-09-06T03:16:37.436Z,11.22
2018-09-06T03:19:10.531Z,10.35
2018-09-06T03:21:43.756Z,11.65
2018-09-06T03:24:16.923Z,10.53
2018-09-06T03:26:49.920Z,11.73
2018-09-06T03:29:22.871Z,11.08
2018-09-06T03:31:55.867Z,13.32
2018-09-06T03:34:28.819Z,10.82
2018-09-06T03:37:01.880Z,13.08
2018-09-06T03:39:34.972Z,11.50
2018-09-06T03:42:07.950Z,10.95
2018-09-06T03:44:41.157Z,10.98
2018-09-06T03:47:14.120Z,10.82
2018-09-06T03:49:47.258Z,10.98
2018-09-06T03:52:20.227Z,11.10
2018-09-06T03:54:53.164Z,11.80
2018-09-06T03:57:26.240Z,11.55
2018-09-06T03:59:59.178Z,11.83
2018-09-06T04:02:32.234Z,11.55
2018-09-06T04:05:05.410Z,13.20
2018-09-06T04:07:38.367Z,13.15
2018-09-06T04:10:11.316Z,13.83
2018-09-06T04:12:44.297Z,13.62
2018-09-06T04:15:17.562Z,13.13
2018-09-06T04:17:50.536Z,13.60
2018-09-06T04:20:23.626Z,12.70
2018-09-06T04:22:56.816Z,12.15
2018-09-06T04:25:29.805Z,12.47
2018-09-06T04:28:02.958Z,13.43
2018-09-06T04:30:35.960Z,12.78
2018-09-06T04:33:08.929Z,13.55
2018-09-06T04:35:42.065Z,14.15
2018-09-06T04:38:15.198Z,12.68
2018-09-06T04:40:48.238Z,13.25
2018-09-06T04:43:21.176Z,14.70
2018-09-06T04:45:54.300Z,12.95
2018-09-06T04:48:27.410Z,12.95
2018-09-06T04:51:00.580Z,14.65
2018-09-06T04:53:33.684Z,14.28
2018-09-06T04:56:06.790Z,14.38
2018-09-06T04:58:39.754Z,14.13
2018-09-06T05:01:13.976Z,13.62
2018-09-06T05:03:47.032Z,14.83
2018-09-06T05:06:20.006Z,13.30
2018-09-06T05:08:53.094Z,14.40
2018-09-06T05:11:26.152Z,15.68
2018-09-06T05:13:59.165Z,14.75
2018-09-06T05:16:32.202Z,16.52
2018-09-06T05:19:05.559Z,14.73
2018-09-06T05:21:38.510Z,15.25
2018-09-06T05:24:11.477Z,14.13
2018-09-06T05:26:44.666Z,17.02
2018-09-06T05:29:17.794Z,14.80
2018-09-06T05:31:50.901Z,15.35
2018-09-06T05:34:24.014Z,15.10
2018-09-06T05:36:57.059Z,15.08
2018-09-06T05:39:30.158Z,15.48
2018-09-06T05:42:03.298Z,14.53
2018-09-06T05:44:36.254Z,15.70
2018-09-06T05:47:09.251Z,16.17
2018-09-06T05:49:42.259Z,15.83
2018-09-06T05:52:15.330Z,14.93
2018-09-06T05:54:48.435Z,16.77
2018-09-06T05:57:21.430Z,16.95
2018-09-06T05:59:54.399Z,15.45
2018-09-06T06:02:27.514Z,15.08
2018-09-06T06:05:00.532Z,13.98
2018-09-06T06:07:45.124Z,14.90
2018-09-06T06:10:18.202Z,15.13
2018-09-06T06:12:51.563Z,14.07
2018-09-06T06:15:24.671Z,14.05
2018-09-06T06:17:57.618Z,14.95
2018-09-06T06:20:30.668Z,14.73
2018-09-06T06:23:04.200Z,15.43
2018-09-06T06:25:37.181Z,14.00
2018-09-06T06:28:10.138Z,13.55
2018-09-06T06:30:43.214Z,14.58
2018-09-06T06:33:16.106Z,14.47
2018-09-06T06:35:49.200Z,16.77
2018-09-06T06:38:22.204Z,16.25
2018-09-06T06:40:55.232Z,15.20
2018-09-06T06:43:28.200Z,16.17
2018-09-06T06:46:01.142Z,14.58
2018-09-06T06:48:34.120Z,16.60
2018-09-06T06:51:07.092Z,16.57
2018-09-06T06:53:40.134Z,15.00
2018-09-06T06:56:13.126Z,15.60
2018-09-06T06:58:46.063Z,16.45
2018-09-06T07:01:19.189Z,16.07
2018-09-06T07:03:52.334Z,15.50
2018-09-06T07:06:25.390Z,15.48
2018-09-06T07:08:58.327Z,16.42
2018-09-06T07:11:31.309Z,16.93
2018-09-06T07:14:04.417Z,16.23
2018-09-06T07:16:39.490Z,17.65
2018-09-06T07:19:12.603Z,16.57
2018-09-06T07:21:46.219Z,17.25
2018-09-06T07:24:19.335Z,15.65
2018-09-06T07:26:52.366Z,18.02
2018-09-06T07:29:25.393Z,15.40
2018-09-06T07:31:58.516Z,16.12
2018-09-06T07:34:31.510Z,15.65
2018-09-06T07:37:04.575Z,15.28
2018-09-06T07:39:37.741Z,14.83
2018-09-06T07:42:10.838Z,14.73
2018-09-06T07:44:43.956Z,13.80
2018-09-06T07:47:17.070Z,14.18
2018-09-06T07:49:50.155Z,14.15
2018-09-06T07:52:23.318Z,13.62
2018-09-06T07:54:56.283Z,13.98
2018-09-06T07:57:29.719Z,14.03
2018-09-06T08:00:02.824Z,15.25
2018-09-06T08:02:35.946Z,14.93
2018-09-06T08:05:09.263Z,13.50
2018-09-06T08:07:42.297Z,14.33
2018-09-06T08:10:15.403Z,14.28
2018-09-06T08:12:48.467Z,14.10
2018-09-06T08:15:21.530Z,13.50
2018-09-06T08:17:54.497Z,12.88
2018-09-06T08:20:27.559Z,13.95
2018-09-06T08:23:01.038Z,13.93
2018-09-06T08:25:34.169Z,14.07
2018-09-06T08:28:07.324Z,14.47
2018-09-06T08:30:40.599Z,13.68
2018-09-06T08:33:13.545Z,13.22
2018-09-06T08:35:46.676Z,13.13
2018-09-06T08:38:19.870Z,12.73
2018-09-06T08:40:53.038Z,13.18
2018-09-06T08:43:26.066Z,12.65
2018-09-06T08:45:59.234Z,12.00
2018-09-06T08:48:32.318Z,12.18
2018-09-06T08:51:05.679Z,12.55
2018-09-06T08:53:38.902Z,12.78
2018-09-06T08:56:12.053Z,11.68
2018-09-06T08:58:45.013Z,10.93
2018-09-06T09:01:23.764Z,10.58
2018-09-06T09:03:56.894Z,11.93
2018-09-06T09:06:30.053Z,11.30
2018-09-06T09:09:04.822Z,10.48
2018-09-06T09:11:37.935Z,12.23
2018-09-06T09:14:11.055Z,11.53
2018-09-06T09:16:44.246Z,13.80
2018-09-06T09:19:17.370Z,11.08
2018-09-06T09:21:50.459Z,14.80
2018-09-06T09:24:23.483Z,10.48
2018-09-06T09:26:56.412Z,10.05
2018-09-06T09:29:29.478Z,11.03
2018-09-06T09:32:02.513Z,9.68
2018-09-06T09:34:35.493Z,9.98
2018-09-06T09:37:08.641Z,9.38
2018-09-06T09:39:41.755Z,9.65
2018-09-06T09:42:14.759Z,9.68
2018-09-06T09:44:47.879Z,10.15
2018-09-06T09:49:53.398Z,10.98
2018-09-06T09:52:26.468Z,9.68
2018-09-06T09:54:59.639Z,10.50
2018-09-06T09:57:32.753Z,9.73
2018-09-06T10:00:06.072Z,9.38
2018-09-06T10:02:45.009Z,9.85
2018-09-06T10:07:28.517Z,9.20
2018-09-06T10:10:01.685Z,9.08
2018-09-06T10:12:34.852Z,9.15
2018-09-06T10:15:13.071Z,8.70
2018-09-06T10:17:46.071Z,10.05
2018-09-06T10:20:19.163Z,9.03
2018-09-06T10:22:52.273Z,9.23
2018-09-06T10:25:25.281Z,9.98
2018-09-06T10:27:58.407Z,8.53
2018-09-06T10:30:31.589Z,8.88
2018-09-06T10:33:04.882Z,8.95
2018-09-06T10:35:37.973Z,9.70
2018-09-06T10:38:10.973Z,8.98
2018-09-06T10:40:44.003Z,8.95
2018-09-06T11:02:38.419Z,9.70
2018-09-06T11:05:11.452Z,8.63
2018-09-06T11:07:44.576Z,8.68
2018-09-06T11:10:17.742Z,9.70
2018-09-06T11:12:51.237Z,11.70
2018-09-06T11:15:24.409Z,10.03
2018-09-06T11:17:57.632Z,9.08
2018-09-06T11:20:30.775Z,9.93
2018-09-06T11:23:03.722Z,9.53
2018-09-06T11:25:36.793Z,9.10
2018-09-06T11:28:09.750Z,10.20
2018-09-06T11:30:42.823Z,9.60
2018-09-06T11:33:15.933Z,10.85
2018-09-06T11:35:48.881Z,10.08
2018-09-06T11:38:22.021Z,8.80
2018-09-06T11:40:55.017Z,9.23
2018-09-06T11:43:28.065Z,8.53
2018-09-06T11:46:02.160Z,9.40
2018-09-06T11:48:35.337Z,8.43
2018-09-06T11:51:08.845Z,9.38
2018-09-06T11:53:41.869Z,9.35
2018-09-06T11:56:14.826Z,9.55
2018-09-06T11:58:47.815Z,8.95
2018-09-06T12:01:20.825Z,9.53
2018-09-06T12:03:54.702Z,10.65
2018-09-06T12:06:27.832Z,8.85
2018-09-06T12:09:01.068Z,11.30
2018-09-06T12:11:34.564Z,8.63
2018-09-06T12:14:07.767Z,9.83
2018-09-06T12:16:40.862Z,8.98
2018-09-06T12:19:13.929Z,8.53
2018-09-06T12:21:46.984Z,9.13
2018-09-06T12:24:20.083Z,8.18
2018-09-06T12:26:53.199Z,8.20
2018-09-06T12:29:26.340Z,7.90
2018-09-06T12:31:59.481Z,6.75
2018-09-06T12:34:32.667Z,7.95
2018-09-06T12:37:10.408Z,7.42
2018-09-06T12:39:46.022Z,9.28
2018-09-06T12:42:19.100Z,8.40
2018-09-06T12:44:52.048Z,8.28
2018-09-06T12:47:25.144Z,9.43
2018-09-06T12:49:58.310Z,7.45
2018-09-06T12:52:32.238Z,7.65
2018-09-06T12:55:05.400Z,7.47
2018-09-06T12:57:38.468Z,7.10
2018-09-06T13:00:11.528Z,7.92
2018-09-06T13:02:45.415Z,7.42
2018-09-06T13:05:18.406Z,7.17
2018-09-06T13:07:51.448Z,8.55
2018-09-06T13:10:24.560Z,7.72
2018-09-06T13:12:58.156Z,7.75
2018-09-06T13:15:31.152Z,7.22
2018-09-06T13:18:04.665Z,7.17
2018-09-06T13:20:37.829Z,7.50
2018-09-06T13:23:11.388Z,7.95
2018-09-06T13:25:44.350Z,8.18
2018-09-06T13:28:17.501Z,7.80
2018-09-06T13:30:50.746Z,8.05
2018-09-06T13:33:23.774Z,7.42
2018-09-06T13:35:56.951Z,7.47
2018-09-06T13:38:29.931Z,8.05
2018-09-06T13:41:02.984Z,7.28
2018-09-06T13:43:36.260Z,7.25
2018-09-06T13:46:09.251Z,7.58
2018-09-06T13:48:42.327Z,7.05
2018-09-06T13:51:15.430Z,7.40
2018-09-06T13:53:48.577Z,7.30
2018-09-06T13:56:22.373Z,7.28
2018-09-06T13:58:56.130Z,7.47
2018-09-06T14:01:29.822Z,7.35
2018-09-06T14:04:02.929Z,8.78
2018-09-06T14:06:36.052Z,7.05
2018-09-06T14:09:09.128Z,10.00
2018-09-06T14:11:42.917Z,7.45
2018-09-06T14:14:15.871Z,9.63
2018-09-06T14:16:49.013Z,8.18
2018-09-06T14:19:22.125Z,7.78
2018-09-06T14:21:55.262Z,7.65
2018-09-06T14:24:28.525Z,7.33
2018-09-06T14:27:01.658Z,8.53
2018-09-06T14:29:34.644Z,7.95
2018-09-06T14:32:07.691Z,8.03
2018-09-06T14:34:41.430Z,7.50
2018-09-06T14:37:15.119Z,8.28
2018-09-06T14:39:48.100Z,8.70
2018-09-06T14:42:21.232Z,8.85
2018-09-06T14:44:54.399Z,7.92
2018-09-06T14:47:27.495Z,7.40
2018-09-06T14:50:00.496Z,7.45
2018-09-06T14:52:33.413Z,8.85
2018-09-06T14:55:06.767Z,7.53
2018-09-06T14:57:39.916Z,9.48
2018-09-06T15:00:12.904Z,7.58
2018-09-06T15:02:46.078Z,7.87
2018-09-06T15:05:20.182Z,8.90
2018-09-06T15:07:53.358Z,7.42
2018-09-06T15:10:26.481Z,8.20
2018-09-06T15:12:59.527Z,7.53
2018-09-06T15:15:32.497Z,7.35
2018-09-06T15:18:14.248Z,8.88
2018-09-06T15:20:49.368Z,7.65
2018-09-06T15:23:22.592Z,7.20
2018-09-06T15:25:55.572Z,6.62
2018-09-06T15:28:30.336Z,7.33
2018-09-06T15:31:04.546Z,7.70
2018-09-06T15:33:37.486Z,7.90
2018-09-06T15:36:10.611Z,7.05
2018-09-06T15:38:43.801Z,8.25
2018-09-06T15:41:16.808Z,7.92
2018-09-06T15:43:49.817Z,7.37
2018-09-06T15:46:23.120Z,7.25
2018-09-06T15:48:56.218Z,7.60
2018-09-06T15:51:29.252Z,7.92
2018-09-06T15:54:02.206Z,7.87
2018-09-06T15:56:35.366Z,6.97
2018-09-06T15:59:08.491Z,7.58
2018-09-06T16:01:41.567Z,7.75
2018-09-06T16:04:14.672Z,7.03
2018-09-06T16:06:47.750Z,7.92
2018-09-06T16:09:20.800Z,8.83
2018-09-06T16:11:53.993Z,7.40
2018-09-06T16:14:31.020Z,9.10
2018-09-06T16:17:04.822Z,7.33
2018-09-06T16:19:38.735Z,8.83
2018-09-06T16:22:11.810Z,7.53
2018-09-06T16:24:45.630Z,7.22
2018-09-06T16:27:18.678Z,7.15
2018-09-06T16:29:52.074Z,7.95
2018-09-06T16:32:25.128Z,7.15
2018-09-06T16:34:58.318Z,8.18
2018-09-06T16:37:31.331Z,8.38
2018-09-06T16:40:04.424Z,8.13
